createdAt,value
2022-09-05T00:00:15.644Z,7.31
2022-09-05T00:03:02.297Z,7.25
2022-09-05T00:06:02.406Z,7.17
2022-09-05T00:08:53.133Z,6.93
2022-09-05T00:11:43.919Z,6.96
2022-09-05T00:14:34.340Z,6.87
2022-09-05T00:17:25.893Z,6.71
2022-09-05T00:24:36.941Z,6.67
2022-09-05T00:24:37.782Z,6.73
2022-09-05T00:26:36.578Z,6.56
2022-09-05T00:29:33.227Z,6.65
2022-09-05T00:32:18.456Z,6.72
2022-09-05T00:34:58.935Z,6.76
2022-09-05T00:37:36.271Z,6.61
2022-09-05T00:40:38.412Z,6.76
2022-09-05T00:43:11.173Z,6.74
2022-09-05T00:45:44.188Z,6.80
2022-09-05T00:48:32.984Z,6.80
2022-09-05T00:51:12.162Z,6.82
2022-09-05T00:53:54.917Z,6.83
2022-09-05T00:56:34.834Z,6.73
2022-09-05T00:59:40.520Z,6.80
2022-09-05T01:02:29.959Z,6.83
2022-09-05T01:05:19.324Z,6.84
2022-09-05T01:07:59.624Z,6.88
2022-09-05T01:10:51.632Z,6.74
2022-09-05T01:13:46.958Z,6.92
2022-09-05T01:16:28.327Z,6.97
2022-09-05T01:19:16.079Z,7.00
2022-09-05T01:22:19.973Z,7.02
2022-09-05T01:25:07.807Z,6.97
2022-09-05T01:29:01.302Z,7.17
2022-09-05T01:31:28.995Z,7.28
2022-09-05T01:34:16.853Z,7.15
2022-09-05T01:36:59.654Z,7.47
2022-09-05T01:40:15.383Z,7.67
2022-09-05T01:43:20.162Z,7.80
2022-09-05T01:45:53.542Z,7.95
2022-09-05T01:48:26.775Z,8.23
2022-09-05T01:50:58.377Z,8.53
2022-09-05T01:53:52.066Z,8.60
2022-09-05T01:56:36.001Z,8.81
2022-09-05T01:59:22.938Z,8.90
2022-09-05T02:02:19.007Z,9.00
2022-09-05T02:05:14.714Z,9.02
2022-09-05T02:08:01.514Z,9.12
2022-09-05T02:10:56.686Z,9.18
2022-09-05T02:13:37.058Z,9.41
2022-09-05T02:16:10.774Z,9.49
2022-09-05T02:18:56.108Z,9.61
2022-09-05T02:21:56.337Z,9.72
2022-09-05T02:24:39.059Z,9.84
2022-09-05T02:28:03.744Z,9.79
2022-09-05T02:30:09.892Z,10.05
2022-09-05T02:32:40.498Z,10.12
2022-09-05T02:35:13.687Z,10.23
2022-09-05T02:42:15.577Z,10.23
2022-09-05T02:45:02.515Z,10.40
2022-09-05T02:45:08.247Z,10.26
2022-09-05T02:46:55.959Z,10.70
2022-09-05T02:53:57.749Z,10.82
2022-09-05T02:57:30.501Z,10.86
2022-09-05T02:58:05.621Z,11.07
2022-09-05T02:59:36.484Z,10.99
2022-09-05T03:02:25.021Z,11.31
2022-09-05T03:05:19.212Z,11.42
2022-09-05T03:08:17.241Z,11.19
2022-09-05T03:11:14.199Z,11.57
2022-09-05T03:14:19.253Z,11.60
2022-09-05T03:17:49.494Z,11.73
2022-09-05T03:20:54.504Z,11.69
2022-09-05T03:24:10.087Z,12.06
2022-09-05T03:27:00.411Z,12.26
2022-09-05T03:29:48.447Z,12.00
2022-09-05T03:33:04.231Z,12.51
2022-09-05T03:35:50.841Z,12.66
2022-09-05T03:38:43.313Z,13.03
2022-09-05T03:41:51.126Z,13.39
2022-09-05T03:44:38.111Z,13.95
2022-09-05T03:47:33.722Z,14.29
2022-09-05T03:57:07.576Z,14.56
2022-09-05T03:57:15.839Z,15.35
2022-09-05T03:57:25.012Z,15.00
2022-09-05T03:59:39.252Z,15.77
2022-09-05T04:06:26.745Z,15.77
2022-09-05T04:08:27.566Z,15.78
2022-09-05T04:08:34.350Z,15.98
2022-09-05T04:11:02.148Z,16.07
2022-09-05T04:13:39.054Z,16.11
2022-09-05T04:16:28.764Z,16.26
2022-09-05T04:19:06.465Z,16.42
2022-09-05T04:21:45.080Z,16.66
2022-09-05T04:24:32.067Z,16.68
2022-09-05T04:27:20.786Z,16.52
2022-09-05T04:30:00.518Z,16.61
2022-09-05T04:32:54.769Z,16.88
2022-09-05T04:35:51.433Z,16.92
2022-09-05T04:38:37.442Z,17.40
2022-09-05T04:41:19.165Z,17.57
2022-09-05T04:44:18.557Z,17.71
2022-09-05T04:46:54.506Z,17.79
2022-09-05T04:49:30.084Z,17.83
2022-09-05T04:52:07.804Z,18.14
2022-09-05T04:54:43.868Z,18.42
2022-09-05T04:57:21.422Z,18.50
2022-09-05T05:06:05.242Z,18.51
2022-09-05T05:06:08.548Z,18.62
2022-09-05T05:06:10.847Z,18.50
2022-09-05T05:09:03.965Z,18.56
2022-09-05T05:17:57.275Z,18.78
2022-09-05T05:18:07.943Z,18.84
2022-09-05T05:18:15.469Z,18.76
2022-09-05T05:21:02.665Z,18.54
2022-09-05T05:23:42.375Z,18.27
2022-09-05T05:26:21.517Z,18.21
2022-09-05T05:29:09.595Z,18.15
2022-09-05T05:31:47.604Z,17.86
2022-09-05T05:34:24.416Z,17.78
2022-09-05T05:37:12.357Z,17.67
2022-09-05T05:39:52.625Z,17.62
2022-09-05T05:42:25.595Z,17.52
2022-09-05T05:44:56.593Z,17.25
2022-09-05T05:47:39.206Z,17.17
2022-09-05T05:50:13.813Z,17.41
2022-09-05T05:53:03.557Z,17.36
2022-09-05T05:55:51.733Z,17.25
2022-09-05T05:58:59.996Z,17.19
2022-09-05T06:01:58.879Z,17.11
2022-09-05T06:04:30.173Z,17.10
2022-09-05T06:07:23.286Z,16.90
2022-09-05T06:14:50.528Z,17.02
2022-09-05T06:14:55.799Z,17.03
2022-09-05T06:17:19.983Z,16.99
2022-09-05T06:22:04.958Z,16.94
2022-09-05T06:23:16.596Z,16.96
2022-09-05T06:26:43.221Z,16.81
2022-09-05T06:30:02.183Z,16.90
2022-09-05T06:32:46.802Z,16.96
2022-09-05T06:35:50.741Z,17.04
2022-09-05T06:38:45.813Z,17.21
2022-09-05T06:41:42.956Z,17.32
2022-09-05T06:44:31.521Z,17.48
2022-09-05T06:47:29.174Z,17.49
2022-09-05T06:50:27.134Z,17.24
2022-09-05T06:53:20.011Z,17.54
2022-09-05T06:56:25.817Z,17.61
2022-09-05T06:59:25.691Z,17.59
2022-09-05T07:02:09.175Z,17.57
2022-09-05T07:05:38.327Z,17.42
2022-09-05T07:07:59.843Z,17.40
2022-09-05T07:11:15.652Z,17.37
2022-09-05T07:13:57.632Z,17.26
2022-09-05T07:16:54.465Z,17.17
2022-09-05T07:19:32.213Z,17.02
2022-09-05T07:22:47.777Z,16.90
2022-09-05T07:25:19.530Z,16.95
2022-09-05T07:28:27.008Z,16.82
2022-09-05T07:31:06.835Z,16.89
2022-09-05T07:33:39.696Z,16.82
2022-09-05T07:36:18.676Z,16.81
2022-09-05T07:39:02.395Z,16.89
2022-09-05T07:41:44.158Z,16.78
2022-09-05T07:44:37.644Z,16.95
2022-09-05T07:47:17.866Z,17.05
2022-09-05T07:50:01.731Z,17.07
2022-09-05T07:56:51.144Z,17.19
2022-09-05T07:57:03.851Z,17.17
2022-09-05T07:58:42.427Z,17.28
2022-09-05T08:01:13.950Z,17.45
2022-09-05T08:03:44.910Z,17.56
2022-09-05T08:06:37.509Z,17.56
2022-09-05T08:10:05.902Z,17.57
2022-09-05T08:12:28.079Z,17.42
2022-09-05T08:15:19.928Z,17.39
2022-09-05T08:17:52.978Z,17.31
2022-09-05T08:20:39.422Z,17.20
2022-09-05T08:23:29.275Z,17.15
2022-09-05T08:26:22.098Z,17.08
2022-09-05T08:28:54.203Z,17.06
2022-09-05T08:31:44.565Z,17.00
2022-09-05T08:34:24.800Z,17.04
2022-09-05T08:37:06.005Z,17.06
2022-09-05T08:39:37.600Z,16.88
2022-09-05T08:42:30.715Z,17.26
2022-09-05T08:46:39.832Z,17.45
2022-09-05T08:48:31.877Z,17.65
2022-09-05T08:51:22.333Z,17.69
2022-09-05T08:54:09.090Z,17.76
2022-09-05T08:56:43.012Z,17.72
2022-09-05T08:59:28.568Z,17.64
2022-09-05T09:02:44.883Z,17.48
2022-09-05T09:05:54.620Z,17.45
2022-09-05T09:08:48.053Z,17.24
2022-09-05T09:11:36.918Z,17.45
2022-09-05T09:14:39.734Z,17.50
2022-09-05T09:17:42.524Z,17.51
2022-09-05T09:20:16.617Z,17.52
2022-09-05T09:23:32.018Z,17.40
2022-09-05T09:26:20.831Z,17.29
2022-09-05T09:29:09.664Z,17.06
2022-09-05T09:31:50.809Z,17.21
2022-09-05T09:34:30.224Z,17.24
2022-09-05T09:37:17.014Z,17.18
2022-09-05T09:40:16.102Z,17.25
2022-09-05T09:43:19.930Z,17.04
2022-09-05T09:46:18.740Z,16.37
2022-09-05T09:49:24.649Z,15.95
2022-09-05T09:52:09.108Z,15.45
2022-09-05T09:55:08.769Z,15.32
2022-09-05T09:58:01.157Z,15.16
2022-09-05T10:00:52.287Z,14.93
2022-09-05T10:07:22.844Z,14.82
2022-09-05T10:10:38.534Z,14.64
2022-09-05T10:10:52.403Z,14.42
2022-09-05T10:13:10.731Z,14.38
2022-09-05T10:16:07.420Z,14.29
2022-09-05T10:18:45.121Z,14.10
2022-09-05T10:22:33.706Z,14.15
2022-09-05T10:25:19.449Z,14.07
2022-09-05T10:27:55.665Z,13.87
2022-09-05T10:33:22.682Z,13.71
2022-09-05T10:35:09.031Z,13.56
2022-09-05T10:37:00.283Z,13.36
2022-09-05T10:39:39.903Z,13.29
2022-09-05T10:42:18.348Z,13.38
2022-09-05T10:44:54.754Z,13.41
2022-09-05T10:48:13.231Z,13.25
2022-09-05T10:50:46.597Z,13.39
2022-09-05T10:53:39.737Z,13.33
2022-09-05T10:56:20.696Z,13.21
2022-09-05T11:02:22.883Z,13.28
2022-09-05T11:02:34.673Z,13.16
2022-09-05T11:05:28.187Z,13.13
2022-09-05T11:08:09.256Z,13.08
2022-09-05T11:11:26.259Z,12.85
2022-09-05T11:14:27.163Z,12.83
2022-09-05T11:17:18.909Z,12.84
2022-09-05T11:19:57.785Z,12.74
2022-09-05T11:22:30.921Z,12.49
2022-09-05T11:25:03.892Z,12.57
2022-09-05T11:27:49.714Z,12.67
2022-09-05T11:30:31.890Z,12.60
2022-09-05T11:39:52.353Z,12.63
2022-09-05T11:39:53.049Z,12.37
2022-09-05T11:39:55.959Z,12.51
2022-09-05T11:42:54.931Z,12.34
2022-09-05T11:45:46.959Z,12.49
2022-09-05T11:48:38.440Z,12.52
2022-09-05T11:51:57.452Z,12.35
2022-09-05T11:55:01.491Z,12.51
2022-09-05T11:57:44.021Z,12.62
2022-09-05T12:00:32.775Z,12.67
2022-09-05T12:03:57.372Z,12.68
2022-09-05T12:06:30.189Z,12.81
2022-09-05T12:09:30.985Z,12.82
2022-09-05T12:12:30.008Z,12.90
2022-09-05T12:15:00.205Z,12.92
2022-09-05T12:17:41.910Z,12.82
2022-09-05T12:20:23.668Z,12.93
2022-09-05T12:23:47.537Z,12.77
2022-09-05T12:27:44.469Z,12.96
2022-09-05T12:29:33.693Z,12.88
2022-09-05T12:33:33.868Z,13.05
2022-09-05T12:36:03.744Z,13.02
2022-09-05T12:40:55.502Z,12.89
2022-09-05T12:41:42.656Z,13.09
2022-09-05T12:44:44.105Z,13.08
2022-09-05T12:47:21.117Z,13.00
2022-09-05T12:50:14.323Z,13.09
2022-09-05T12:52:52.559Z,13.02
2022-09-05T12:55:33.082Z,12.90
2022-09-05T13:03:02.854Z,12.85
2022-09-05T13:03:06.073Z,12.85
2022-09-05T13:04:16.520Z,12.83
2022-09-05T13:06:48.339Z,12.84
2022-09-05T13:12:07.419Z,12.75
2022-09-05T13:14:53.445Z,12.74
2022-09-05T13:15:38.716Z,12.80
2022-09-05T13:18:12.951Z,12.77
2022-09-05T13:20:52.329Z,12.59
2022-09-05T13:23:50.914Z,12.57
2022-09-05T13:26:27.392Z,12.41
2022-09-05T13:29:14.960Z,12.51
2022-09-05T13:38:01.507Z,12.64
2022-09-05T13:38:21.157Z,12.45
2022-09-05T13:38:48.957Z,12.51
2022-09-05T13:41:28.725Z,12.46
2022-09-05T13:44:27.110Z,12.25
2022-09-05T13:46:58.334Z,12.37
2022-09-05T13:49:35.786Z,12.29
2022-09-05T13:52:40.262Z,12.29
2022-09-05T13:55:26.332Z,12.24
2022-09-05T13:58:08.367Z,11.97
2022-09-05T14:00:38.838Z,12.22
2022-09-05T14:03:39.348Z,12.22
2022-09-05T14:06:45.493Z,12.08
2022-09-05T14:09:36.954Z,12.08
2022-09-05T14:12:12.197Z,12.15
2022-09-05T14:15:12.635Z,11.92
2022-09-05T14:18:20.287Z,11.97
2022-09-05T14:21:16.686Z,12.14
2022-09-05T14:24:06.612Z,12.12
2022-09-05T14:26:59.409Z,12.08
2022-09-05T14:29:36.911Z,11.98
2022-09-05T14:37:46.137Z,12.03
2022-09-05T14:37:52.110Z,11.93
2022-09-05T14:38:20.187Z,12.02
2022-09-05T14:42:02.244Z,11.99
2022-09-05T14:44:54.377Z,12.04
2022-09-05T14:47:35.052Z,11.96
2022-09-05T14:50:28.325Z,12.01
2022-09-05T14:57:23.963Z,11.96
2022-09-05T15:02:40.792Z,11.94
2022-09-05T15:02:58.398Z,11.88
2022-09-05T15:05:14.974Z,11.89
2022-09-05T15:08:03.077Z,11.67
2022-09-05T15:12:14.823Z,11.88
2022-09-05T15:13:32.184Z,11.77
2022-09-05T15:16:10.391Z,11.78
2022-09-05T15:18:43.913Z,11.81
2022-09-05T15:21:38.773Z,11.83
2022-09-05T15:24:29.542Z,11.79
2022-09-05T15:27:02.946Z,11.70
2022-09-05T15:29:37.594Z,11.81
2022-09-05T15:32:22.014Z,11.66
2022-09-05T15:35:00.807Z,11.75
2022-09-05T15:37:41.993Z,11.51
2022-09-05T15:40:23.563Z,11.48
2022-09-05T15:43:01.332Z,11.87
2022-09-05T15:45:36.959Z,11.85
2022-09-05T15:48:27.179Z,11.88
2022-09-05T15:51:18.139Z,11.98
2022-09-05T15:53:52.701Z,11.73
2022-09-05T15:56:25.230Z,12.13
2022-09-05T15:58:58.013Z,12.11
2022-09-05T16:01:59.758Z,12.26
2022-09-05T16:10:31.562Z,12.16
2022-09-05T16:10:34.370Z,12.19
2022-09-05T16:10:57.918Z,12.15
2022-09-05T16:13:18.399Z,12.22
2022-09-05T16:23:13.544Z,12.34
2022-09-05T16:23:35.085Z,12.45
2022-09-05T16:23:38.016Z,12.47
2022-09-05T16:24:59.706Z,12.51
2022-09-05T16:27:43.862Z,12.48
2022-09-05T16:30:20.950Z,12.31
2022-09-05T16:32:54.674Z,12.22
2022-09-05T16:35:27.116Z,12.05
2022-09-05T16:38:15.432Z,12.24
2022-09-05T16:41:00.161Z,12.23
2022-09-05T16:43:36.901Z,12.27
2022-09-05T16:46:13.871Z,12.11
2022-09-05T16:49:11.819Z,12.14
2022-09-05T16:51:50.557Z,11.97
2022-09-05T16:54:29.572Z,12.00
2022-09-05T16:57:07.132Z,11.92
2022-09-05T16:59:39.288Z,11.74
2022-09-05T17:02:17.056Z,11.86
2022-09-05T17:05:05.682Z,11.78
2022-09-05T17:08:13.025Z,11.88
2022-09-05T17:11:08.273Z,11.76
2022-09-05T17:13:55.532Z,11.69
2022-09-05T17:16:44.631Z,11.64
2022-09-05T17:19:22.786Z,11.70
2022-09-05T17:24:45.125Z,11.60
2022-09-05T17:29:26.612Z,11.40
2022-09-05T17:29:43.224Z,11.16
2022-09-05T17:33:51.801Z,11.08
2022-09-05T17:36:42.892Z,10.97
2022-09-05T17:39:58.331Z,11.04
2022-09-05T17:42:42.043Z,10.95
2022-09-05T17:45:23.034Z,10.99
2022-09-05T17:47:58.193Z,10.84
2022-09-05T17:50:28.225Z,11.02
2022-09-05T17:53:26.021Z,10.90
2022-09-05T17:55:55.784Z,10.94
2022-09-05T17:58:28.216Z,10.87
2022-09-05T18:01:29.618Z,10.95
2022-09-05T18:04:08.583Z,10.83
2022-09-05T18:06:59.579Z,10.73
2022-09-05T18:09:39.258Z,10.89
2022-09-05T18:13:13.347Z,10.73
2022-09-05T18:15:28.134Z,10.83
2022-09-05T18:18:06.472Z,10.72
2022-09-05T18:21:21.647Z,10.81
2022-09-05T18:24:00.988Z,10.81
2022-09-05T18:26:38.174Z,10.61
2022-09-05T18:29:57.621Z,10.71
2022-09-05T18:32:34.229Z,10.65
2022-09-05T18:35:37.129Z,10.75
2022-09-05T18:38:51.222Z,10.67
2022-09-05T18:41:22.612Z,10.74
2022-09-05T18:44:21.830Z,10.71
2022-09-05T18:46:57.111Z,10.67
2022-09-05T18:50:25.712Z,10.76
2022-09-05T18:52:34.821Z,10.80
2022-09-05T18:56:09.570Z,10.72
2022-09-05T18:58:10.587Z,10.72
2022-09-05T19:00:47.243Z,10.88
2022-09-05T19:03:34.024Z,10.76
2022-09-05T19:06:37.264Z,10.42
2022-09-05T19:09:06.265Z,10.52
2022-09-05T19:12:34.878Z,10.54
2022-09-05T19:15:09.130Z,10.52
2022-09-05T19:17:46.929Z,10.45
2022-09-05T19:20:33.254Z,10.46
2022-09-05T19:23:12.821Z,10.49
2022-09-05T19:25:47.335Z,10.46
2022-09-05T19:29:42.424Z,10.39
2022-09-05T19:37:13.592Z,10.37
2022-09-05T19:37:15.381Z,10.32
2022-09-05T19:44:22.363Z,10.21
2022-09-05T19:47:40.240Z,10.41
2022-09-05T19:47:45.139Z,9.71
2022-09-05T19:48:34.802Z,10.22
2022-09-05T19:51:17.439Z,10.40
2022-09-05T19:53:56.525Z,10.14
2022-09-05T19:56:46.840Z,10.43
2022-09-05T19:59:20.894Z,10.41
2022-09-05T20:01:51.203Z,10.33
2022-09-05T20:04:20.584Z,10.46
2022-09-05T20:06:52.141Z,10.41
2022-09-05T20:09:24.631Z,10.44
2022-09-05T20:11:59.297Z,10.31
2022-09-05T20:14:32.444Z,10.24
2022-09-05T20:17:21.612Z,10.33
2022-09-05T20:20:03.831Z,10.28
2022-09-05T20:22:48.036Z,10.34
2022-09-05T20:25:42.081Z,10.32
2022-09-05T20:28:17.649Z,10.32
2022-09-05T20:30:54.831Z,10.28
2022-09-05T20:33:51.773Z,10.11
2022-09-05T20:43:12.074Z,10.16
2022-09-05T20:43:16.679Z,10.37
2022-09-05T20:43:27.531Z,10.27
2022-09-05T20:45:45.318Z,10.38
2022-09-05T20:54:06.133Z,10.25
2022-09-05T20:54:18.671Z,10.37
2022-09-05T20:54:23.022Z,10.39
2022-09-05T20:56:56.277Z,10.27
2022-09-05T20:59:39.503Z,10.24
2022-09-05T21:02:20.477Z,10.45
2022-09-05T21:05:20.613Z,10.41
2022-09-05T21:08:06.978Z,10.34
2022-09-05T21:10:58.339Z,10.33
2022-09-05T21:13:30.910Z,10.32
2022-09-05T21:16:00.272Z,10.20
2022-09-05T21:18:33.216Z,10.41
2022-09-05T21:21:28.775Z,10.39
2022-09-05T21:24:16.084Z,10.37
2022-09-05T21:26:49.768Z,10.09
2022-09-05T21:29:32.685Z,10.39
2022-09-05T21:32:10.942Z,10.42
2022-09-05T21:34:47.839Z,10.28
2022-09-05T21:37:18.646Z,10.32
2022-09-05T21:39:59.426Z,10.38
2022-09-05T21:47:40.416Z,10.39
2022-09-05T21:47:42.445Z,10.41
2022-09-05T21:48:15.851Z,10.44
2022-09-05T21:50:50.169Z,10.25
2022-09-05T21:55:10.758Z,10.45
2022-09-05T21:59:32.836Z,10.40
2022-09-05T21:59:46.024Z,10.40
2022-09-05T22:02:17.492Z,10.49
2022-09-05T22:04:47.720Z,10.29
2022-09-05T22:07:31.799Z,10.49
2022-09-05T22:10:04.871Z,10.49
2022-09-05T22:12:39.603Z,10.37
2022-09-05T22:15:27.938Z,10.54
2022-09-05T22:18:16.537Z,10.53
2022-09-05T22:21:29.532Z,10.56
2022-09-05T22:23:45.070Z,10.57
2022-09-05T22:26:16.092Z,10.53
2022-09-05T22:28:50.286Z,10.54
2022-09-05T22:31:20.547Z,10.55
2022-09-05T22:33:51.406Z,10.47
2022-09-05T22:36:20.263Z,10.40
2022-09-05T22:38:51.073Z,10.50
2022-09-05T22:41:30.238Z,10.20
2022-09-05T22:44:00.316Z,10.23
2022-09-05T22:46:30.672Z,10.11
2022-09-05T22:48:59.914Z,10.22
2022-09-05T22:51:29.233Z,10.16
2022-09-05T22:53:58.421Z,9.92
2022-09-05T22:56:33.003Z,10.02
2022-09-05T22:59:01.899Z,9.93
2022-09-05T23:01:34.026Z,9.91
2022-09-05T23:04:03.126Z,9.83
2022-09-05T23:06:31.860Z,10.00
2022-09-05T23:09:00.422Z,9.84
2022-09-05T23:11:28.989Z,9.67
2022-09-05T23:13:57.677Z,9.90
2022-09-05T23:16:26.353Z,9.88
2022-09-05T23:18:54.836Z,9.66
2022-09-05T23:21:23.561Z,9.71
2022-09-05T23:23:52.250Z,9.72
2022-09-05T23:26:21.245Z,9.68
2022-09-05T23:28:50.506Z,9.69
2022-09-05T23:31:19.514Z,9.58
2022-09-05T23:33:48.482Z,9.70
2022-09-05T23:36:17.601Z,9.61
2022-09-05T23:38:46.349Z,9.52
2022-09-05T23:41:16.663Z,9.63
2022-09-05T23:43:45.210Z,9.46
2022-09-05T23:46:14.180Z,9.49
2022-09-05T23:48:42.996Z,9.41
2022-09-05T23:51:13.377Z,9.41
2022-09-05T23:53:42.724Z,9.44
2022-09-05T23:56:12.354Z,9.55
2022-09-05T23:58:41.333Z,9.50
